Time;durP1;ratioP1;P1;durP2;ratioP2;P2;SDS_P1;SDS_P2;PMS_P1;PMS_P2;Temp;Humidity;BMP_temperature;BMP_pressure;BME280_temperature;BME280_humidity;BME280_pressure;Samples;Min_cycle;Max_cycle;Signal;HPM_P1;HPM_P2
2023/07/06 00:02:14;;;;;;;;;;;;;;;12.44;100.00;101537.63;5027567;28;19970;-70
2023/07/06 00:04:39;;;;;;;;;;;;;;;12.46;100.00;101530.28;5029771;28;20365;-70
2023/07/06 00:07:04;;;;;;;;;;;;;;;12.50;100.00;101528.19;5029759;28;20024;-70
2023/07/06 00:09:35;;;;;;;;;;;;;;;12.55;100.00;101531.41;5013334;28;19931;-70
2023/07/06 00:12:00;;;;;;;;;;;;;;;12.55;100.00;101532.28;5031600;28;19925;-70
2023/07/06 00:14:26;;;;;;;;;;;;;;;12.52;100.00;101535.22;5029238;28;19925;-69
2023/07/06 00:17:06;;;;;;;;;;;;;;;12.58;100.00;101544.66;5029970;28;19972;-70
2023/07/06 00:19:31;;;;;;;;;;;;;;;12.58;100.00;101539.28;5027238;28;19936;-70
2023/07/06 00:21:57;;;;;;;;;;;;;;;12.63;100.00;101536.22;5027314;28;19941;-70
2023/07/06 00:24:24;;;;;;;;;;;;;;;12.67;100.00;101530.50;5029725;28;19932;-71
2023/07/06 00:26:49;;;;;;;;;;;;;;;12.60;100.00;101537.31;5030133;28;19925;-70
2023/07/06 00:29:15;;;;;;;;;;;;;;;12.64;100.00;101538.81;5014177;28;19924;-71
2023/07/06 00:31:51;;;;;;;;;;;;;;;12.63;100.00;101533.53;5029512;28;19960;-69
2023/07/06 00:34:16;;;;;;;;;;;;;;;12.65;100.00;101536.97;5027243;28;19950;-70
2023/07/06 00:36:42;;;;;;;;;;;;;;;12.63;100.00;101533.53;5029316;28;19948;-70
2023/07/06 00:39:12;;;;;;;;;;;;;;;12.66;100.00;101528.78;5032229;28;19925;-70
2023/07/06 00:41:37;;;;;;;;;;;;;;;12.64;100.00;101528.03;5031296;28;20750;-69
2023/07/06 00:44:04;;;;;;;;;;;;;;;12.63;100.00;101537.09;5028532;28;19936;-69
2023/07/06 00:46:36;;;;;;;;;;;;;;;12.58;100.00;101542.81;5029718;28;19921;-70
2023/07/06 00:49:01;;;;;;;;;;;;;;;12.59;100.00;101539.13;5028570;28;20015;-69
2023/07/06 00:51:27;;;;;;;;;;;;;;;12.56;100.00;101539.41;5028026;28;19924;-70
2023/07/06 00:54:03;;;;;;;;;;;;;;;12.56;100.00;101542.09;5029347;28;19925;-69
2023/07/06 00:56:29;;;;;;;;;;;;;;;12.57;100.00;101535.72;5028957;28;19932;-69
2023/07/06 00:59:05;;;;;;;;;;;;;;;12.56;100.00;101542.09;5032020;28;20406;-70
2023/07/06 01:01:34;;;;;;;;;;;;;;;12.63;100.00;101537.09;5031678;28;20303;-70
2023/07/06 01:03:59;;;;;;;;;;;;;;;12.60;100.00;101537.31;5030788;28;19932;-70
2023/07/06 01:06:26;;;;;;;;;;;;;;;12.59;100.00;101538.28;5033221;28;21045;-70
2023/07/06 01:08:52;;;;;;;;;;;;;;;12.50;100.00;101537.16;5034059;28;19928;-74
2023/07/06 01:11:17;;;;;;;;;;;;;;;12.60;100.00;101534.63;5034394;28;20016;-71
2023/07/06 01:13:45;;;;;;;;;;;;;;;12.61;100.00;101533.66;5035297;28;19932;-70
2023/07/06 01:16:18;;;;;;;;;;;;;;;12.55;100.00;101523.34;5036456;28;19975;-70
2023/07/06 01:18:43;;;;;;;;;;;;;;;12.49;100.00;101527.34;5035173;28;19974;-71
2023/07/06 01:21:14;;;;;;;;;;;;;;;12.45;100.00;101526.72;5031985;28;19924;-70
2023/07/06 01:23:40;;;;;;;;;;;;;;;12.44;100.00;101529.53;5034472;28;19928;-70
2023/07/06 01:26:14;;;;;;;;;;;;;;;12.35;100.00;101533.78;5036486;28;19925;-70
2023/07/06 01:28:50;;;;;;;;;;;;;;;12.30;100.00;101527.88;5034138;28;19925;-70
2023/07/06 01:31:25;;;;;;;;;;;;;;;12.29;100.00;101532.41;5037411;28;20010;-70
2023/07/06 01:33:52;;;;;;;;;;;;;;;12.36;100.00;101531.94;5016706;28;19929;-70
2023/07/06 01:36:28;;;;;;;;;;;;;;;12.31;100.00;101532.28;5032517;28;19932;-70
2023/07/06 01:39:12;;;;;;;;;;;;;;;12.18;100.00;101528.78;5034479;28;19971;-70
2023/07/06 01:41:39;;;;;;;;;;;;;;;12.14;100.00;101533.53;5033445;28;20413;-69
2023/07/06 01:44:04;;;;;;;;;;;;;;;12.14;100.00;101536.22;5035937;28;19925;-69
2023/07/06 01:46:29;;;;;;;;;;;;;;;12.07;100.00;101533.13;5012377;28;19924;-70
2023/07/06 01:48:55;;;;;;;;;;;;;;;12.04;100.00;101527.13;5032917;28;19995;-70
2023/07/06 01:51:24;;;;;;;;;;;;;;;12.08;100.00;101531.28;5014862;28;19928;-69
2023/07/06 01:53:54;;;;;;;;;;;;;;;11.96;100.00;101535.69;5033921;28;19931;-70
2023/07/06 01:56:21;;;;;;;;;;;;;;;11.90;100.00;101530.78;5026833;28;19983;-69
2023/07/06 01:58:48;;;;;;;;;;;;;;;11.87;100.00;101539.91;5032311;28;20029;-70
2023/07/06 02:01:15;;;;;;;;;;;;;;;11.83;100.00;101533.03;5030117;28;19924;-69
2023/07/06 02:03:41;;;;;;;;;;;;;;;11.83;100.00;101533.91;5028582;28;20348;-69
2023/07/06 02:06:07;;;;;;;;;;;;;;;11.75;100.00;101532.75;5035684;28;20215;-69
2023/07/06 02:08:33;;;;;;;;;;;;;;;11.70;100.00;101535.75;5023863;28;19929;-69
2023/07/06 02:11:01;;;;;;;;;;;;;;;11.79;100.00;101543.16;5035494;28;19929;-69
2023/07/06 02:13:26;;;;;;;;;;;;;;;11.77;100.00;101533.50;5042627;28;20386;-69
2023/07/06 02:15:51;;;;;;;;;;;;;;;11.70;100.00;101533.94;5031559;28;19925;-70
2023/07/06 02:18:17;;;;;;;;;;;;;;;11.66;100.00;101532.41;5026647;28;19943;-71
2023/07/06 02:20:42;;;;;;;;;;;;;;;11.64;100.00;101531.66;5037786;28;19967;-69
2023/07/06 02:23:08;;;;;;;;;;;;;;;11.71;100.00;101534.78;5030471;28;20218;-69
2023/07/06 02:25:33;;;;;;;;;;;;;;;11.70;100.00;101533.94;5033964;28;19921;-69
2023/07/06 02:27:58;;;;;;;;;;;;;;;11.68;100.00;101537.69;5029729;28;20387;-69
2023/07/06 02:30:23;;;;;;;;;;;;;;;11.66;100.00;101532.41;5033440;28;20302;-70
2023/07/06 02:32:49;;;;;;;;;;;;;;;11.64;100.00;101531.66;5033845;28;20452;-69
2023/07/06 02:35:14;;;;;;;;;;;;;;;11.72;100.00;101530.28;5033170;28;19935;-70
2023/07/06 02:37:39;;;;;;;;;;;;;;;11.69;100.00;101526.81;5025229;28;19932;-69
2023/07/06 02:40:08;;;;;;;;;;;;;;;11.62;100.00;101528.22;5035881;28;19925;-69
2023/07/06 02:42:34;;;;;;;;;;;;;;;11.66;100.00;101523.47;5035204;28;20293;-69
2023/07/06 02:45:00;;;;;;;;;;;;;;;11.62;100.00;101527.38;5030724;28;20078;-69
2023/07/06 02:47:25;;;;;;;;;;;;;;;11.60;100.00;101532.00;5025188;28;20323;-69
2023/07/06 02:49:50;;;;;;;;;;;;;;;11.61;100.00;101531.03;5033482;28;20557;-71
2023/07/06 02:52:15;;;;;;;;;;;;;;;11.63;100.00;101534.47;5032997;28;19931;-70
2023/07/06 02:54:40;;;;;;;;;;;;;;;11.54;100.00;101538.66;5033695;28;19924;-70
2023/07/06 02:57:06;;;;;;;;;;;;;;;11.48;100.00;101529.22;5036695;28;19936;-69
2023/07/06 02:59:31;;;;;;;;;;;;;;;11.47;100.00;101540.09;5029439;28;19967;-70
2023/07/06 03:01:57;;;;;;;;;;;;;;;11.47;100.00;101534.72;5034299;28;19921;-70
2023/07/06 03:04:23;;;;;;;;;;;;;;;11.41;100.00;101527.91;5026503;28;19928;-70
2023/07/06 03:06:48;;;;;;;;;;;;;;;11.39;100.00;101529.84;5033409;28;20493;-69
2023/07/06 03:09:14;;;;;;;;;;;;;;;11.31;100.00;101535.75;5024859;28;20378;-70
2023/07/06 03:11:44;;;;;;;;;;;;;;;11.31;100.00;101533.06;5034790;28;20573;-70
2023/07/06 03:14:10;;;;;;;;;;;;;;;11.29;100.00;101536.84;5030520;28;19931;-71
2023/07/06 03:16:39;;;;;;;;;;;;;;;11.13;100.00;101510.19;5032687;28;20378;-68
2023/07/06 03:19:05;;;;;;;;;;;;;;;11.31;100.00;101540.28;5030521;28;20347;-68
2023/07/06 03:21:30;;;;;;;;;;;;;;;11.35;100.00;101542.66;5030702;28;19929;-68
2023/07/06 03:23:55;;;;;;;;;;;;;;;11.36;100.00;101544.38;5035348;28;19963;-68
2023/07/06 03:26:21;;;;;;;;;;;;;;;11.40;100.00;101543.19;5030218;28;19924;-68
2023/07/06 03:28:47;;;;;;;;;;;;;;;11.35;100.00;101550.72;5034263;28;19963;-68
2023/07/06 03:31:14;;;;;;;;;;;;;;;11.38;100.00;101538.91;5030486;28;19925;-69
2023/07/06 03:33:41;;;;;;;;;;;;;;;11.40;100.00;101550.38;5034888;28;19975;-69
2023/07/06 03:36:06;;;;;;;;;;;;;;;11.47;100.00;101550.84;5034182;28;19928;-70
2023/07/06 03:38:35;;;;;;;;;;;;;;;11.45;100.00;101550.09;5033140;28;20014;-69
2023/07/06 03:41:03;;;;;;;;;;;;;;;11.46;100.00;101558.03;5032207;28;19932;-70
2023/07/06 03:43:29;;;;;;;;;;;;;;;11.44;100.00;101559.13;5028583;28;19924;-71
2023/07/06 03:45:54;;;;;;;;;;;;;;;11.47;100.00;101553.53;5033275;28;19936;-70
2023/07/06 03:48:21;;;;;;;;;;;;;;;11.52;100.00;101554.06;5034166;28;19963;-70
2023/07/06 03:50:47;;;;;;;;;;;;;;;11.48;100.00;101566.00;5031194;28;19925;-73
2023/07/06 03:53:12;;;;;;;;;;;;;;;11.59;100.00;101559.88;5028927;28;19978;-69
2023/07/06 03:55:40;;;;;;;;;;;;;;;11.53;100.00;101564.72;5027190;28;20014;-71
2023/07/06 03:58:07;;;;;;;;;;;;;;;11.52;100.00;101571.06;5032601;28;19940;-69
2023/07/06 04:00:33;;;;;;;;;;;;;;;11.57;100.00;101572.56;5032672;28;20248;-69
2023/07/06 04:03:00;;;;;;;;;;;;;;;11.62;100.00;101567.72;5030135;28;19932;-69
2023/07/06 04:05:32;;;;;;;;;;;;;;;11.61;100.00;101572.22;5028676;28;19925;-71
2023/07/06 04:08:05;;;;;;;;;;;;;;;11.63;100.00;101572.13;5034213;28;19925;-68
2023/07/06 04:10:30;;;;;;;;;;;;;;;11.63;100.00;101570.28;5033630;28;19994;-72
2023/07/06 04:12:55;;;;;;;;;;;;;;;11.69;100.00;101574.38;5013592;28;20015;-69
2023/07/06 04:15:22;;;;;;;;;;;;;;;11.75;100.00;101568.56;5026385;28;19925;-68
2023/07/06 04:17:47;;;;;;;;;;;;;;;11.74;100.00;101582.13;5030431;28;19968;-68
2023/07/06 04:20:18;;;;;;;;;;;;;;;11.70;100.00;101576.09;5029023;28;20024;-70
2023/07/06 04:22:43;;;;;;;;;;;;;;;11.74;100.00;101577.59;5028919;28;20071;-69
2023/07/06 04:25:08;;;;;;;;;;;;;;;11.76;100.00;101577.50;5031253;28;20294;-69
2023/07/06 04:27:33;;;;;;;;;;;;;;;11.77;100.00;101572.00;5031424;28;19979;-69
2023/07/06 04:29:59;;;;;;;;;;;;;;;11.74;100.00;101582.97;5029253;28;20045;-71
2023/07/06 04:32:24;;;;;;;;;;;;;;;11.82;100.00;101577.91;5029256;28;20138;-70
2023/07/06 04:34:51;;;;;;;;;;;;;;;11.83;100.00;101578.75;5033345;28;20520;-69
2023/07/06 04:37:17;;;;;;;;;;;;;;;11.86;100.00;101586.63;5033023;28;19928;-69
2023/07/06 04:39:42;;;;;;;;;;;;;;;11.90;100.00;101584.59;5034044;28;19921;-74
2023/07/06 04:42:07;;;;;;;;;;;;;;;11.84;100.00;101584.06;5036093;28;20402;-69
2023/07/06 04:44:33;;;;;;;;;;;;;;;11.88;100.00;101598.13;5033844;28;19932;-71
2023/07/06 04:46:59;;;;;;;;;;;;;;;11.91;100.00;101597.09;5032152;28;19924;-68
2023/07/06 04:49:24;;;;;;;;;;;;;;;11.96;100.00;101598.47;5035762;28;21261;-70
2023/07/06 04:51:49;;;;;;;;;;;;;;;11.92;100.00;101602.34;5034844;28;19960;-70
2023/07/06 04:54:14;;;;;;;;;;;;;;;11.96;100.00;101606.53;5048591;28;20024;-71
2023/07/06 04:56:39;;;;;;;;;;;;;;;11.99;100.00;101603.66;5029503;28;19933;-69
2023/07/06 04:59:05;;;;;;;;;;;;;;;11.99;100.00;101600.09;5031300;28;19935;-69
2023/07/06 05:01:30;;;;;;;;;;;;;;;12.05;100.00;101605.03;5032675;28;20300;-69
2023/07/06 05:03:55;;;;;;;;;;;;;;;12.06;100.00;101600.50;5030163;28;19929;-71
2023/07/06 05:06:20;;;;;;;;;;;;;;;12.05;100.00;101612.28;5030637;28;19921;-70
2023/07/06 05:08:46;;;;;;;;;;;;;;;12.07;100.00;101600.41;5033003;28;19924;-71
2023/07/06 05:11:11;;;;;;;;;;;;;;;12.09;100.00;101611.06;5030038;28;20094;-70
2023/07/06 05:13:37;;;;;;;;;;;;;;;12.11;100.00;101610.00;5031589;28;19931;-70
2023/07/06 05:16:02;;;;;;;;;;;;;;;12.19;100.00;101603.16;5027355;28;19960;-69
2023/07/06 05:18:29;;;;;;;;;;;;;;;12.20;100.00;101605.75;5031172;28;19924;-69
2023/07/06 05:20:57;;;;;;;;;;;;;;;12.25;100.00;101609.00;5035536;28;20563;-69
2023/07/06 05:23:22;;;;;;;;;;;;;;;12.31;100.00;101610.38;5035331;23;20389;-71
2023/07/06 05:25:51;;;;;;;;;;;;;;;12.40;100.00;101607.00;5018379;28;19928;-70
2023/07/06 05:28:19;;;;;;;;;;;;;;;12.43;100.00;101606.78;5000654;28;20317;-71
2023/07/06 05:30:44;;;;;;;;;;;;;;;12.42;100.00;101614.97;4992055;28;19932;-70
2023/07/06 05:33:09;;;;;;;;;;;;;;;12.49;100.00;101616.25;4998259;28;20292;-70
2023/07/06 05:35:34;;;;;;;;;;;;;;;12.48;100.00;101617.22;4982633;28;20264;-70
2023/07/06 05:38:00;;;;;;;;;;;;;;;12.58;100.00;101612.00;4998469;28;20390;-70
2023/07/06 05:40:25;;;;;;;;;;;;;;;12.64;100.00;101616.94;5001218;28;20376;-70
2023/07/06 05:42:50;;;;;;;;;;;;;;;12.65;100.00;101597.09;4996436;28;19929;-72
2023/07/06 05:45:15;;;;;;;;;;;;;;;12.87;100.00;101619.75;4996702;28;19925;-71
2023/07/06 05:47:41;;;;;;;;;;;;;;;13.09;100.00;101618.09;5014747;28;19929;-71
2023/07/06 05:50:06;;;;;;;;;;;;;;;13.33;100.00;101623.47;4997993;28;19925;-71
2023/07/06 05:52:31;;;;;;;;;;;;;;;13.37;100.00;101616.88;4992909;28;19931;-72
2023/07/06 05:54:57;;;;;;;;;;;;;;;13.36;100.00;101615.16;4994524;28;19921;-71
2023/07/06 05:57:22;;;;;;;;;;;;;;;13.40;100.00;101623.84;5011626;28;20010;-69
2023/07/06 05:59:48;;;;;;;;;;;;;;;13.49;100.00;101626.72;5011526;28;20507;-70
2023/07/06 06:02:17;;;;;;;;;;;;;;;13.55;100.00;101632.63;4994489;28;19925;-71
2023/07/06 06:04:42;;;;;;;;;;;;;;;13.43;100.00;101632.59;5012320;28;19925;-69
2023/07/06 06:07:09;;;;;;;;;;;;;;;13.49;100.00;101634.81;4998443;28;19931;-70
2023/07/06 06:09:34;;;;;;;;;;;;;;;13.38;100.00;101594.28;5013777;28;19929;-70
2023/07/06 06:12:00;;;;;;;;;;;;;;;13.59;100.00;101634.09;5013691;28;20245;-69
2023/07/06 06:14:25;;;;;;;;;;;;;;;13.58;100.00;101635.09;4993971;28;20015;-70
2023/07/06 06:16:51;;;;;;;;;;;;;;;13.54;100.00;101631.75;4994363;28;19936;-68
2023/07/06 06:19:16;;;;;;;;;;;;;;;13.67;100.00;101638.91;5013399;28;19921;-70
2023/07/06 06:21:41;;;;;;;;;;;;;;;13.64;100.00;101640.84;5014688;28;20027;-70
2023/07/06 06:24:08;;;;;;;;;;;;;;;13.84;100.00;101649.22;5014720;28;20308;-69
2023/07/06 06:26:33;;;;;;;;;;;;;;;14.03;100.00;101639.69;4998599;28;20283;-69
2023/07/06 06:28:59;;;;;;;;;;;;;;;14.16;100.00;101647.66;5000882;28;19931;-69
2023/07/06 06:31:24;;;;;;;;;;;;;;;14.24;100.00;101648.75;5011544;28;19933;-70
2023/07/06 06:33:49;;;;;;;;;;;;;;;13.97;100.00;101651.78;5012241;28;20331;-71
2023/07/06 06:36:18;;;;;;;;;;;;;;;14.02;100.00;101659.56;4998588;28;19932;-70
2023/07/06 06:38:43;;;;;;;;;;;;;;;14.14;100.00;101665.81;5013250;28;20269;-69
2023/07/06 06:41:10;;;;;;;;;;;;;;;14.40;100.00;101666.41;5013382;28;20434;-71
2023/07/06 06:43:37;;;;;;;;;;;;;;;14.52;100.00;101676.22;5011649;28;21462;-69
2023/07/06 06:46:02;;;;;;;;;;;;;;;14.54;100.00;101676.09;5014382;28;20123;-70
2023/07/06 06:48:28;;;;;;;;;;;;;;;14.47;100.00;101677.56;4994452;28;19956;-70
2023/07/06 06:50:55;;;;;;;;;;;;;;;14.82;100.00;101679.25;5010504;28;19926;-70
2023/07/06 06:53:21;;;;;;;;;;;;;;;14.69;100.00;101685.69;4994666;28;20231;-68
2023/07/06 06:55:48;;;;;;;;;;;;;;;14.90;100.00;101676.78;5009907;28;20225;-70
2023/07/06 06:58:14;;;;;;;;;;;;;;;15.08;100.00;101676.22;4997830;28;20031;-70
2023/07/06 07:00:40;;;;;;;;;;;;;;;14.92;100.00;101684.75;5013854;28;19970;-71
2023/07/06 07:03:05;;;;;;;;;;;;;;;15.05;100.00;101690.88;5014012;28;20367;-69
2023/07/06 07:05:30;;;;;;;;;;;;;;;14.86;100.00;101686.13;5010165;28;19925;-69
2023/07/06 07:07:55;;;;;;;;;;;;;;;15.07;100.00;101690.72;5017031;28;19960;-69
2023/07/06 07:10:22;;;;;;;;;;;;;;;14.82;100.00;101696.34;5016475;28;20012;-69
2023/07/06 07:12:47;;;;;;;;;;;;;;;15.05;100.00;101693.56;5013412;28;20220;-69
2023/07/06 07:15:14;;;;;;;;;;;;;;;15.34;100.00;101689.41;4998444;28;19929;-70
2023/07/06 07:17:39;;;;;;;;;;;;;;;15.68;100.00;101686.50;5016232;28;20462;-70
2023/07/06 07:20:05;;;;;;;;;;;;;;;15.86;100.00;101681.38;5016924;28;19921;-70
2023/07/06 07:22:31;;;;;;;;;;;;;;;16.00;100.00;101694.56;5017805;28;19971;-70
2023/07/06 07:24:58;;;;;;;;;;;;;;;15.75;100.00;101687.72;4996126;28;20039;-69
2023/07/06 07:27:23;;;;;;;;;;;;;;;15.79;100.00;101686.44;4998409;28;19932;-69
2023/07/06 07:29:49;;;;;;;;;;;;;;;15.96;100.00;101697.69;4998216;28;19929;-70
2023/07/06 07:32:14;;;;;;;;;;;;;;;15.51;100.00;101705.03;5017506;28;19947;-70
2023/07/06 07:34:40;;;;;;;;;;;;;;;15.70;100.00;101701.63;5014945;28;20376;-70
2023/07/06 07:37:10;;;;;;;;;;;;;;;15.96;100.00;101703.09;5014709;28;20364;-70
2023/07/06 07:39:36;;;;;;;;;;;;;;;16.08;100.00;101707.44;5016595;28;19928;-70
2023/07/06 07:42:03;;;;;;;;;;;;;;;15.88;100.00;101699.22;5015209;28;19925;-69
2023/07/06 07:44:28;;;;;;;;;;;;;;;16.00;100.00;101704.56;5014450;28;19984;-69
2023/07/06 07:46:53;;;;;;;;;;;;;;;15.94;100.00;101710.50;5013897;28;20020;-69
2023/07/06 07:49:19;;;;;;;;;;;;;;;16.27;100.00;101708.53;5014315;28;19982;-70
2023/07/06 07:51:44;;;;;;;;;;;;;;;16.51;100.00;101708.19;5014803;28;19948;-71
2023/07/06 07:54:09;;;;;;;;;;;;;;;16.32;100.00;101703.56;4997044;28;19925;-70
2023/07/06 07:56:35;;;;;;;;;;;;;;;16.48;100.00;101712.03;5013958;28;19929;-70
2023/07/06 07:59:00;;;;;;;;;;;;;;;16.93;100.00;101709.88;5016128;28;19975;-71
2023/07/06 08:01:25;;;;;;;;;;;;;;;16.86;100.00;101706.00;5014046;28;20039;-74
2023/07/06 08:03:53;;;;;;;;;;;;;;;16.54;100.00;101688.94;5013996;28;19929;-70
2023/07/06 08:06:18;;;;;;;;;;;;;;;17.05;100.00;101714.22;5012816;28;19920;-69
2023/07/06 08:08:44;;;;;;;;;;;;;;;17.19;100.00;101710.22;4983374;28;20337;-69
2023/07/06 08:11:10;;;;;;;;;;;;;;;17.29;100.00;101717.50;5001568;28;19929;-69
2023/07/06 08:13:36;;;;;;;;;;;;;;;17.07;100.00;101719.50;5000411;28;20169;-74
2023/07/06 08:16:01;;;;;;;;;;;;;;;17.10;100.00;101719.22;5018189;28;19991;-70
2023/07/06 08:18:27;;;;;;;;;;;;;;;16.87;100.00;101716.72;5001163;28;19971;-72
2023/07/06 08:20:54;;;;;;;;;;;;;;;16.99;100.00;101717.47;5001588;28;19925;-73
2023/07/06 08:23:20;;;;;;;;;;;;;;;16.89;100.00;101712.00;5017392;28;19929;-70
2023/07/06 08:25:46;;;;;;;;;;;;;;;16.79;100.00;101717.41;5019561;28;20012;-72
2023/07/06 08:28:12;;;;;;;;;;;;;;;16.81;100.00;101728.13;5016786;28;19925;-76
2023/07/06 08:30:40;;;;;;;;;;;;;;;17.09;100.00;101718.34;5001440;28;20560;-69
2023/07/06 08:33:06;;;;;;;;;;;;;;;17.57;100.00;101731.22;5019307;28;20303;-74
2023/07/06 08:35:31;;;;;;;;;;;;;;;17.98;100.00;101729.16;5017787;28;19960;-70
2023/07/06 08:37:57;;;;;;;;;;;;;;;17.77;100.00;101732.91;5018030;28;19925;-74
2023/07/06 08:40:26;;;;;;;;;;;;;;;17.65;100.00;101736.78;4997305;28;19961;-69
2023/07/06 08:42:53;;;;;;;;;;;;;;;18.11;100.00;101732.44;5001933;28;19932;-74
2023/07/06 08:45:27;;;;;;;;;;;;;;;18.18;100.00;101738.13;5008302;28;20272;-69
2023/07/06 08:47:52;;;;;;;;;;;;;;;18.03;100.00;101737.75;5013292;28;20364;-71
2023/07/06 08:50:21;;;;;;;;;;;;;;;17.78;100.00;101744.63;4999534;28;19995;-72
2023/07/06 08:52:46;;;;;;;;;;;;;;;17.86;100.00;101738.47;5001836;28;19925;-71
2023/07/06 08:55:13;;;;;;;;;;;;;;;17.99;100.00;101734.47;4999979;28;19979;-73
2023/07/06 08:57:38;;;;;;;;;;;;;;;17.65;100.00;101743.06;4998846;28;20489;-70
2023/07/06 09:00:04;;;;;;;;;;;;;;;17.73;100.00;101746.91;4999587;28;20554;-72
2023/07/06 09:02:30;;;;;;;;;;;;;;;17.67;100.00;101741.06;5015776;28;19969;-70
2023/07/06 09:04:56;;;;;;;;;;;;;;;17.57;100.00;101745.66;5018944;28;19921;-69
2023/07/06 09:07:42;;;;;;;;;;;;;;;17.69;100.00;101743.66;5001358;28;19921;-69
2023/07/06 09:10:17;;;;;;;;;;;;;;;17.80;100.00;101751.63;5018472;28;20735;-76
2023/07/06 09:12:43;;;;;;;;;;;;;;;17.98;100.00;101742.75;5002539;28;20077;-71
2023/07/06 09:15:09;;;;;;;;;;;;;;;18.21;100.00;101750.59;5000189;28;19971;-72
2023/07/06 09:17:34;;;;;;;;;;;;;;;18.02;100.00;101757.75;4998496;28;19926;-71
2023/07/06 09:20:01;;;;;;;;;;;;;;;18.22;100.00;101744.16;5018302;28;19967;-68
2023/07/06 09:22:27;;;;;;;;;;;;;;;18.28;100.00;101751.69;5015989;28;19929;-68
2023/07/06 09:24:52;;;;;;;;;;;;;;;18.72;100.00;101746.50;5017510;28;20278;-69
2023/07/06 09:27:18;;;;;;;;;;;;;;;18.80;100.00;101753.06;5017887;28;19993;-69
2023/07/06 09:29:44;;;;;;;;;;;;;;;18.54;100.00;101748.31;4998285;28;19925;-70
2023/07/06 09:32:09;;;;;;;;;;;;;;;18.23;100.00;101748.56;5013359;28;19936;-70
2023/07/06 09:34:35;;;;;;;;;;;;;;;18.27;100.00;101753.56;5017746;28;19921;-71
2023/07/06 09:37:01;;;;;;;;;;;;;;;18.39;100.00;101753.38;5016589;28;19932;-72
2023/07/06 09:39:26;;;;;;;;;;;;;;;18.46;100.00;101751.75;4999148;28;19921;-72
2023/07/06 09:41:52;;;;;;;;;;;;;;;18.64;100.00;101760.00;4997393;28;20054;-76
2023/07/06 09:44:21;;;;;;;;;;;;;;;18.80;100.00;101755.78;5000398;28;19948;-72
2023/07/06 09:46:47;;;;;;;;;;;;;;;18.66;100.00;101757.97;4996909;28;19994;-73
2023/07/06 09:49:14;;;;;;;;;;;;;;;18.71;100.00;101749.34;5012364;28;20438;-71
2023/07/06 09:51:40;;;;;;;;;;;;;;;18.42;100.00;101726.75;5017665;28;20380;-71
2023/07/06 09:54:15;;;;;;;;;;;;;;;18.99;100.00;101747.53;4997978;28;19963;-70
2023/07/06 09:56:40;;;;;;;;;;;;;;;19.09;100.00;101750.19;4995135;28;19917;-71
2023/07/06 09:59:06;;;;;;;;;;;;;;;18.98;100.00;101759.41;4998296;28;19932;-76
2023/07/06 10:01:34;;;;;;;;;;;;;;;19.12;100.00;101755.31;4997424;28;20390;-72
2023/07/06 10:04:11;;;;;;;;;;;;;;;19.28;100.00;101754.63;5021481;28;19935;-75
2023/07/06 10:06:55;;;;;;;;;;;;;;;19.39;100.00;101750.81;5015508;28;19933;-74
2023/07/06 10:09:22;;;;;;;;;;;;;;;19.58;100.00;101752.53;5015188;28;19925;-70
2023/07/06 10:11:51;;;;;;;;;;;;;;;19.87;100.00;101747.81;4997730;28;19971;-76
2023/07/06 10:14:31;;;;;;;;;;;;;;;19.97;100.00;101748.59;4999123;28;20031;-69
2023/07/06 10:17:01;;;;;;;;;;;;;;;20.30;100.00;101742.50;4993205;28;20003;-69
2023/07/06 10:19:41;;;;;;;;;;;;;;;20.48;100.00;101742.44;4994957;28;19947;-72
2023/07/06 10:22:21;;;;;;;;;;;;;;;20.07;100.00;101743.03;5000173;28;19921;-70
2023/07/06 10:24:53;;;;;;;;;;;;;;;19.84;100.00;101739.94;5001148;28;19925;-71
2023/07/06 10:27:30;;;;;;;;;;;;;;;19.54;100.00;101728.47;4983499;28;19992;-71
2023/07/06 10:29:56;;;;;;;;;;;;;;;19.51;100.00;101742.41;4998642;28;19974;-75
2023/07/06 10:32:26;;;;;;;;;;;;;;;19.37;100.00;101741.06;5013675;28;19971;-73
2023/07/06 10:34:54;;;;;;;;;;;;;;;19.54;100.00;101740.22;5000079;28;20335;-74
2023/07/06 10:37:19;;;;;;;;;;;;;;;19.98;100.00;101735.81;4997396;28;19917;-69
2023/07/06 10:39:44;;;;;;;;;;;;;;;19.99;100.00;101735.69;4999625;28;19967;-75
2023/07/06 10:42:39;;;;;;;;;;;;;;;20.15;100.00;101745.81;5014979;28;19925;-71
2023/07/06 10:45:05;;;;;;;;;;;;;;;20.43;100.00;101728.41;4988363;28;19924;-71
2023/07/06 10:47:44;;;;;;;;;;;;;;;20.76;100.00;101734.00;5001002;28;20413;-70
2023/07/06 10:50:14;;;;;;;;;;;;;;;21.20;94.56;101727.47;5010087;28;20040;-70
2023/07/06 10:52:40;;;;;;;;;;;;;;;21.17;96.69;101727.84;4998215;28;19925;-70
2023/07/06 10:55:11;;;;;;;;;;;;;;;20.44;93.85;101732.84;5033833;28;19924;-74
2023/07/06 10:57:36;;;;;;;;;;;;;;;20.80;96.70;101730.81;5012984;28;19934;-71
2023/07/06 11:00:14;;;;;;;;;;;;;;;21.06;94.02;101732.56;5016000;28;20278;-72
2023/07/06 11:02:40;;;;;;;;;;;;;;;21.67;82.46;101726.88;5016868;28;20024;-69
2023/07/06 11:05:19;;;;;;;;;;;;;;;22.27;81.35;101729.31;5017470;28;20382;-72
2023/07/06 11:07:52;;;;;;;;;;;;;;;21.93;78.42;101731.28;5017434;28;19925;-72
2023/07/06 11:10:23;;;;;;;;;;;;;;;21.58;71.14;101742.34;5016493;28;19963;-72
2023/07/06 11:12:52;;;;;;;;;;;;;;;21.77;77.20;101742.22;5034129;28;20351;-71
2023/07/06 11:15:18;;;;;;;;;;;;;;;22.53;72.85;101733.69;5037139;28;20011;-70
2023/07/06 11:17:48;;;;;;;;;;;;;;;22.06;73.31;101749.00;5035896;28;20343;-73
2023/07/06 11:20:22;;;;;;;;;;;;;;;22.98;74.84;101734.84;5018129;28;20172;-70
2023/07/06 11:22:52;;;;;;;;;;;;;;;23.07;70.75;101743.84;5035750;28;20306;-71
2023/07/06 11:25:19;;;;;;;;;;;;;;;23.36;73.97;101740.44;5017399;28;20768;-72
2023/07/06 11:27:45;;;;;;;;;;;;;;;21.95;74.13;101742.03;5017097;28;19986;-74
2023/07/06 11:30:14;;;;;;;;;;;;;;;21.75;77.65;101734.19;5029902;28;19928;-71
2023/07/06 11:32:43;;;;;;;;;;;;;;;21.40;71.24;101748.00;5016628;28;19924;-74
2023/07/06 11:35:11;;;;;;;;;;;;;;;21.99;77.62;101746.13;5016701;28;20368;-71
2023/07/06 11:37:40;;;;;;;;;;;;;;;21.17;74.25;101738.75;5019390;28;20505;-70
2023/07/06 11:40:19;;;;;;;;;;;;;;;21.30;72.09;101744.56;5037243;28;19929;-72
2023/07/06 11:42:50;;;;;;;;;;;;;;;20.85;73.97;101743.09;5021372;28;19935;-75
2023/07/06 11:45:19;;;;;;;;;;;;;;;20.74;78.07;101753.25;5015664;28;19983;-74
2023/07/06 11:48:08;;;;;;;;;;;;;;;20.87;75.15;101744.63;5029762;28;19963;-70
2023/07/06 11:50:36;;;;;;;;;;;;;;;20.64;77.83;101747.09;4999733;28;19928;-70
2023/07/06 11:53:17;;;;;;;;;;;;;;;20.51;73.44;101745.66;5031342;28;20358;-72
2023/07/06 11:55:50;;;;;;;;;;;;;;;20.16;74.26;101752.13;5016879;28;20101;-73
2023/07/06 11:58:29;;;;;;;;;;;;;;;20.50;74.90;101751.31;5033947;28;19924;-68
2023/07/06 12:00:58;;;;;;;;;;;;;;;20.65;70.74;101754.28;5014711;28;19925;-68
2023/07/06 12:03:26;;;;;;;;;;;;;;;20.50;72.78;101735.78;5030170;28;19975;-70
2023/07/06 12:05:52;;;;;;;;;;;;;;;20.70;71.57;101757.34;5035529;28;20007;-70
2023/07/06 12:08:28;;;;;;;;;;;;;;;20.62;68.84;101749.97;5016434;28;19924;-70
2023/07/06 12:10:56;;;;;;;;;;;;;;;20.98;72.31;101759.84;5033358;28;19974;-69
2023/07/06 12:13:25;;;;;;;;;;;;;;;21.39;74.32;101751.75;5016516;28;19924;-69
2023/07/06 12:16:14;;;;;;;;;;;;;;;21.96;79.16;101755.53;5017492;28;20254;-72
2023/07/06 12:18:40;;;;;;;;;;;;;;;23.29;74.74;101755.06;5020771;28;20374;-70
2023/07/06 12:21:05;;;;;;;;;;;;;;;23.28;69.55;101759.66;5016525;28;19928;-71
2023/07/06 12:23:31;;;;;;;;;;;;;;;23.75;56.65;101760.50;5014037;28;19928;-72
2023/07/06 12:25:57;;;;;;;;;;;;;;;25.28;60.07;101749.09;5033350;28;19929;-72
2023/07/06 12:28:24;;;;;;;;;;;;;;;24.78;54.49;101757.19;5014619;28;19932;-74
2023/07/06 12:30:52;;;;;;;;;;;;;;;25.06;56.08;101756.47;5017938;28;20362;-67